sensor_id;sensor_type;location;lat;lon;timestamp;temperature;humidity
2190;DHT22;1101;51.056;7.262;2023-04-03T00:01:08;1.00;99.90
2190;DHT22;1101;51.056;7.262;2023-04-03T00:04:06;1.00;99.90
2190;DHT22;1101;51.056;7.262;2023-04-03T00:06:33;1.00;99.90
2190;DHT22;1101;51.056;7.262;2023-04-03T00:09:02;1.00;99.90
2190;DHT22;1101;51.056;7.262;2023-04-03T00:11:29;0.90;99.90
2190;DHT22;1101;51.056;7.262;2023-04-03T00:13:57;0.90;99.90
2190;DHT22;1101;51.056;7.262;2023-04-03T00:16:25;0.90;99.90
2190;DHT22;1101;51.056;7.262;2023-04-03T00:18:53;0.90;99.90
2190;DHT22;1101;51.056;7.262;2023-04-03T00:21:22;0.90;99.90
2190;DHT22;1101;51.056;7.262;2023-04-03T00:23:49;0.90;99.90
2190;DHT22;1101;51.056;7.262;2023-04-03T00:26:17;0.90;99.90
2190;DHT22;1101;51.056;7.262;2023-04-03T00:28:45;0.80;99.90
2190;DHT22;1101;51.056;7.262;2023-04-03T00:31:14;0.80;99.90
2190;DHT22;1101;51.056;7.262;2023-04-03T00:33:43;0.80;99.90
2190;DHT22;1101;51.056;7.262;2023-04-03T00:36:11;0.80;99.90
2190;DHT22;1101;51.056;7.262;2023-04-03T00:38:41;0.80;99.90
2190;DHT22;1101;51.056;7.262;2023-04-03T00:41:09;0.80;99.90
2190;DHT22;1101;51.056;7.262;2023-04-03T00:43:36;0.80;99.90
2190;DHT22;1101;51.056;7.262;2023-04-03T00:46:04;0.80;99.90
2190;DHT22;1101;51.056;7.262;2023-04-03T00:48:35;0.80;99.90
2190;DHT22;1101;51.056;7.262;2023-04-03T00:51:05;0.80;99.90
2190;DHT22;1101;51.056;7.262;2023-04-03T00:53:36;0.80;99.90
2190;DHT22;1101;51.056;7.262;2023-04-03T00:56:10;0.70;99.90
2190;DHT22;1101;51.056;7.262;2023-04-03T00:58:42;0.70;99.90
2190;DHT22;1101;51.056;7.262;2023-04-03T01:01:15;0.70;99.90
2190;DHT22;1101;51.056;7.262;2023-04-03T01:03:43;0.70;99.90
2190;DHT22;1101;51.056;7.262;2023-04-03T01:06:11;0.70;99.90
2190;DHT22;1101;51.056;7.262;2023-04-03T01:08:40;0.60;99.90
2190;DHT22;1101;51.056;7.262;2023-04-03T01:11:09;0.60;99.90
2190;DHT22;1101;51.056;7.262;2023-04-03T01:13:37;0.60;99.90
2190;DHT22;1101;51.056;7.262;2023-04-03T01:16:06;0.60;99.90
2190;DHT22;1101;51.056;7.262;2023-04-03T01:18:36;0.50;99.90
2190;DHT22;1101;51.056;7.262;2023-04-03T01:21:30;0.50;99.90
2190;DHT22;1101;51.056;7.262;2023-04-03T01:24:16;0.50;99.90
2190;DHT22;1101;51.056;7.262;2023-04-03T01:26:49;0.50;99.90
2190;DHT22;1101;51.056;7.262;2023-04-03T01:29:16;0.40;99.90
2190;DHT22;1101;51.056;7.262;2023-04-03T01:31:51;0.40;99.90
2190;DHT22;1101;51.056;7.262;2023-04-03T01:34:19;0.40;99.90
2190;DHT22;1101;51.056;7.262;2023-04-03T01:36:47;0.50;99.90
2190;DHT22;1101;51.056;7.262;2023-04-03T01:39:15;0.40;99.90
2190;DHT22;1101;51.056;7.262;2023-04-03T01:41:42;0.40;99.90
2190;DHT22;1101;51.056;7.262;2023-04-03T01:44:10;0.40;99.90
2190;DHT22;1101;51.056;7.262;2023-04-03T01:46:38;0.40;99.90
2190;DHT22;1101;51.056;7.262;2023-04-03T01:49:07;0.40;99.90
2190;DHT22;1101;51.056;7.262;2023-04-03T01:51:35;0.40;99.90
2190;DHT22;1101;51.056;7.262;2023-04-03T01:54:03;0.30;99.90
2190;DHT22;1101;51.056;7.262;2023-04-03T01:56:31;0.30;99.90
2190;DHT22;1101;51.056;7.262;2023-04-03T01:58:59;0.30;99.90
2190;DHT22;1101;51.056;7.262;2023-04-03T02:01:27;0.30;99.90
2190;DHT22;1101;51.056;7.262;2023-04-03T02:03:55;0.30;99.90
2190;DHT22;1101;51.056;7.262;2023-04-03T02:06:24;0.30;99.90
2190;DHT22;1101;51.056;7.262;2023-04-03T02:08:52;0.30;99.90
2190;DHT22;1101;51.056;7.262;2023-04-03T02:11:20;0.30;99.90
2190;DHT22;1101;51.056;7.262;2023-04-03T02:13:48;0.30;99.90
2190;DHT22;1101;51.056;7.262;2023-04-03T02:16:15;0.30;99.90
2190;DHT22;1101;51.056;7.262;2023-04-03T02:18:44;0.20;99.90
2190;DHT22;1101;51.056;7.262;2023-04-03T02:21:11;0.20;99.90
2190;DHT22;1101;51.056;7.262;2023-04-03T02:23:40;0.20;99.90
2190;DHT22;1101;51.056;7.262;2023-04-03T02:26:10;0.10;99.90
2190;DHT22;1101;51.056;7.262;2023-04-03T02:28:38;0.10;99.90
2190;DHT22;1101;51.056;7.262;2023-04-03T02:31:06;0.10;99.90
2190;DHT22;1101;51.056;7.262;2023-04-03T02:33:34;0.10;99.90
2190;DHT22;1101;51.056;7.262;2023-04-03T02:36:04;0.10;99.90
2190;DHT22;1101;51.056;7.262;2023-04-03T02:38:32;0.10;99.90
2190;DHT22;1101;51.056;7.262;2023-04-03T02:41:02;0.10;99.90
2190;DHT22;1101;51.056;7.262;2023-04-03T02:43:30;0.10;99.90
2190;DHT22;1101;51.056;7.262;2023-04-03T02:45:58;0.10;99.90
2190;DHT22;1101;51.056;7.262;2023-04-03T02:48:26;0.10;99.90
2190;DHT22;1101;51.056;7.262;2023-04-03T02:50:54;0.10;99.90
2190;DHT22;1101;51.056;7.262;2023-04-03T02:53:22;0.20;99.90
2190;DHT22;1101;51.056;7.262;2023-04-03T02:55:50;0.20;99.90
2190;DHT22;1101;51.056;7.262;2023-04-03T02:58:19;0.10;99.90
2190;DHT22;1101;51.056;7.262;2023-04-03T03:00:47;0.10;99.90
2190;DHT22;1101;51.056;7.262;2023-04-03T03:03:14;0.10;99.90
2190;DHT22;1101;51.056;7.262;2023-04-03T03:05:42;0.10;99.90
2190;DHT22;1101;51.056;7.262;2023-04-03T03:08:10;0.10;99.90
2190;DHT22;1101;51.056;7.262;2023-04-03T03:10:37;0.10;99.90
2190;DHT22;1101;51.056;7.262;2023-04-03T03:13:05;0.10;99.90
2190;DHT22;1101;51.056;7.262;2023-04-03T03:15:34;0.10;99.90
2190;DHT22;1101;51.056;7.262;2023-04-03T03:18:02;0.10;99.90
2190;DHT22;1101;51.056;7.262;2023-04-03T03:20:30;0.10;99.90
2190;DHT22;1101;51.056;7.262;2023-04-03T03:22:58;0.10;99.90
2190;DHT22;1101;51.056;7.262;2023-04-03T03:25:25;0.10;99.90
2190;DHT22;1101;51.056;7.262;2023-04-03T03:27:53;0.10;99.90
2190;DHT22;1101;51.056;7.262;2023-04-03T03:30:21;0.10;99.90
2190;DHT22;1101;51.056;7.262;2023-04-03T03:32:50;0.10;99.90
2190;DHT22;1101;51.056;7.262;2023-04-03T03:35:18;0.10;99.90
2190;DHT22;1101;51.056;7.262;2023-04-03T03:37:46;0.10;99.90
2190;DHT22;1101;51.056;7.262;2023-04-03T03:40:14;0.20;99.90
2190;DHT22;1101;51.056;7.262;2023-04-03T03:42:43;0.10;99.90
2190;DHT22;1101;51.056;7.262;2023-04-03T03:45:11;0.20;99.90
2190;DHT22;1101;51.056;7.262;2023-04-03T03:47:39;0.20;99.90
2190;DHT22;1101;51.056;7.262;2023-04-03T03:50:09;0.20;99.90
2190;DHT22;1101;51.056;7.262;2023-04-03T03:52:37;0.20;99.90
2190;DHT22;1101;51.056;7.262;2023-04-03T03:55:05;0.20;99.90
2190;DHT22;1101;51.056;7.262;2023-04-03T03:57:33;0.20;99.90
2190;DHT22;1101;51.056;7.262;2023-04-03T04:00:02;0.20;99.90
2190;DHT22;1101;51.056;7.262;2023-04-03T04:02:30;0.20;99.90
2190;DHT22;1101;51.056;7.262;2023-04-03T04:04:58;0.20;99.90
2190;DHT22;1101;51.056;7.262;2023-04-03T04:07:27;0.20;99.90
2190;DHT22;1101;51.056;7.262;2023-04-03T04:09:55;0.20;99.90
2190;DHT22;1101;51.056;7.262;2023-04-03T04:12:23;0.20;99.90
2190;DHT22;1101;51.056;7.262;2023-04-03T04:14:51;0.20;99.90
2190;DHT22;1101;51.056;7.262;2023-04-03T04:17:18;0.20;99.90
2190;DHT22;1101;51.056;7.262;2023-04-03T04:19:47;0.20;99.90
2190;DHT22;1101;51.056;7.262;2023-04-03T04:22:14;0.20;99.90
2190;DHT22;1101;51.056;7.262;2023-04-03T04:24:43;0.20;99.90
2190;DHT22;1101;51.056;7.262;2023-04-03T04:27:11;0.20;99.90
2190;DHT22;1101;51.056;7.262;2023-04-03T04:29:39;0.20;99.90
2190;DHT22;1101;51.056;7.262;2023-04-03T04:32:07;0.20;99.90
2190;DHT22;1101;51.056;7.262;2023-04-03T04:34:35;0.20;99.90
2190;DHT22;1101;51.056;7.262;2023-04-03T04:37:02;0.20;99.90
2190;DHT22;1101;51.056;7.262;2023-04-03T04:39:31;0.20;99.90
2190;DHT22;1101;51.056;7.262;2023-04-03T04:42:00;0.20;99.90
2190;DHT22;1101;51.056;7.262;2023-04-03T04:44:27;0.20;99.90
2190;DHT22;1101;51.056;7.262;2023-04-03T04:46:55;0.10;99.90
2190;DHT22;1101;51.056;7.262;2023-04-03T04:49:23;0.10;99.90
2190;DHT22;1101;51.056;7.262;2023-04-03T04:51:50;0.10;99.90
2190;DHT22;1101;51.056;7.262;2023-04-03T04:54:18;0.00;99.90
2190;DHT22;1101;51.056;7.262;2023-04-03T04:56:46;0.00;99.90
2190;DHT22;1101;51.056;7.262;2023-04-03T04:59:16;0.00;99.90
2190;DHT22;1101;51.056;7.262;2023-04-03T05:01:47;-0.10;99.90
2190;DHT22;1101;51.056;7.262;2023-04-03T05:04:14;-0.10;99.90
2190;DHT22;1101;51.056;7.262;2023-04-03T05:06:42;-0.10;99.90
2190;DHT22;1101;51.056;7.262;2023-04-03T05:09:10;-0.10;99.90
2190;DHT22;1101;51.056;7.262;2023-04-03T05:11:38;-0.10;99.90
2190;DHT22;1101;51.056;7.262;2023-04-03T05:14:06;-0.10;99.90
2190;DHT22;1101;51.056;7.262;2023-04-03T05:16:35;-0.10;99.90
2190;DHT22;1101;51.056;7.262;2023-04-03T05:19:03;-0.10;99.90
2190;DHT22;1101;51.056;7.262;2023-04-03T05:21:31;-0.10;99.90
2190;DHT22;1101;51.056;7.262;2023-04-03T05:23:59;0.00;99.90
2190;DHT22;1101;51.056;7.262;2023-04-03T05:26:29;0.00;99.90
2190;DHT22;1101;51.056;7.262;2023-04-03T05:28:57;0.00;99.90
2190;DHT22;1101;51.056;7.262;2023-04-03T05:31:25;0.10;99.90
2190;DHT22;1101;51.056;7.262;2023-04-03T05:33:57;0.10;99.90
2190;DHT22;1101;51.056;7.262;2023-04-03T05:36:25;0.10;99.90
2190;DHT22;1101;51.056;7.262;2023-04-03T05:38:53;0.10;99.90
2190;DHT22;1101;51.056;7.262;2023-04-03T05:41:23;0.10;99.90
2190;DHT22;1101;51.056;7.262;2023-04-03T05:43:51;0.20;99.90
2190;DHT22;1101;51.056;7.262;2023-04-03T05:46:19;0.20;99.90
2190;DHT22;1101;51.056;7.262;2023-04-03T05:48:49;0.20;99.90
2190;DHT22;1101;51.056;7.262;2023-04-03T05:51:22;0.30;99.90
2190;DHT22;1101;51.056;7.262;2023-04-03T05:53:56;0.30;99.90
2190;DHT22;1101;51.056;7.262;2023-04-03T05:56:26;0.30;99.90
2190;DHT22;1101;51.056;7.262;2023-04-03T05:58:54;0.40;99.90
2190;DHT22;1101;51.056;7.262;2023-04-03T06:01:21;0.40;99.90
2190;DHT22;1101;51.056;7.262;2023-04-03T06:03:50;0.40;99.90
2190;DHT22;1101;51.056;7.262;2023-04-03T06:06:19;0.40;99.90
2190;DHT22;1101;51.056;7.262;2023-04-03T06:08:48;0.50;99.90
2190;DHT22;1101;51.056;7.262;2023-04-03T06:11:16;0.50;99.90
2190;DHT22;1101;51.056;7.262;2023-04-03T06:13:44;0.50;99.90
2190;DHT22;1101;51.056;7.262;2023-04-03T06:16:12;0.60;99.90
2190;DHT22;1101;51.056;7.262;2023-04-03T06:18:41;0.60;99.90
2190;DHT22;1101;51.056;7.262;2023-04-03T06:21:09;0.70;99.90
2190;DHT22;1101;51.056;7.262;2023-04-03T06:23:38;0.70;99.90
2190;DHT22;1101;51.056;7.262;2023-04-03T06:26:07;0.70;99.90
2190;DHT22;1101;51.056;7.262;2023-04-03T06:28:35;0.80;99.90
2190;DHT22;1101;51.056;7.262;2023-04-03T06:31:02;0.90;99.90
2190;DHT22;1101;51.056;7.262;2023-04-03T06:33:30;0.90;99.90
2190;DHT22;1101;51.056;7.262;2023-04-03T06:35:58;1.00;99.90
2190;DHT22;1101;51.056;7.262;2023-04-03T06:38:26;1.00;99.90
2190;DHT22;1101;51.056;7.262;2023-04-03T06:40:55;1.10;99.90
2190;DHT22;1101;51.056;7.262;2023-04-03T06:43:23;1.10;99.90
2190;DHT22;1101;51.056;7.262;2023-04-03T06:45:51;1.20;99.90
2190;DHT22;1101;51.056;7.262;2023-04-03T06:48:19;1.30;99.90
2190;DHT22;1101;51.056;7.262;2023-04-03T06:50:47;1.30;99.90
2190;DHT22;1101;51.056;7.262;2023-04-03T06:53:15;1.40;99.90
2190;DHT22;1101;51.056;7.262;2023-04-03T06:55:42;1.40;99.90
2190;DHT22;1101;51.056;7.262;2023-04-03T06:58:11;1.50;99.90
2190;DHT22;1101;51.056;7.262;2023-04-03T07:00:40;1.60;99.90
2190;DHT22;1101;51.056;7.262;2023-04-03T07:03:08;1.60;99.90
2190;DHT22;1101;51.056;7.262;2023-04-03T07:05:36;1.70;99.90
2190;DHT22;1101;51.056;7.262;2023-04-03T07:08:04;1.80;99.90
2190;DHT22;1101;51.056;7.262;2023-04-03T07:10:32;1.90;99.90
2190;DHT22;1101;51.056;7.262;2023-04-03T07:13:00;1.90;99.90
2190;DHT22;1101;51.056;7.262;2023-04-03T07:15:29;2.00;99.90
2190;DHT22;1101;51.056;7.262;2023-04-03T07:17:57;2.10;99.90
2190;DHT22;1101;51.056;7.262;2023-04-03T07:20:25;2.10;99.90
2190;DHT22;1101;51.056;7.262;2023-04-03T07:22:53;2.20;99.90
2190;DHT22;1101;51.056;7.262;2023-04-03T07:25:20;2.20;99.90
2190;DHT22;1101;51.056;7.262;2023-04-03T07:27:48;2.30;99.90
2190;DHT22;1101;51.056;7.262;2023-04-03T07:30:16;2.30;99.90
2190;DHT22;1101;51.056;7.262;2023-04-03T07:32:46;2.40;99.90
2190;DHT22;1101;51.056;7.262;2023-04-03T07:35:14;2.50;99.90
2190;DHT22;1101;51.056;7.262;2023-04-03T07:37:42;2.50;99.90
2190;DHT22;1101;51.056;7.262;2023-04-03T07:40:10;2.60;99.90
2190;DHT22;1101;51.056;7.262;2023-04-03T07:42:38;2.70;99.90
2190;DHT22;1101;51.056;7.262;2023-04-03T07:45:07;2.80;99.90
2190;DHT22;1101;51.056;7.262;2023-04-03T07:47:35;2.80;99.90
2190;DHT22;1101;51.056;7.262;2023-04-03T07:50:06;2.90;99.90
2190;DHT22;1101;51.056;7.262;2023-04-03T07:52:34;3.00;99.90
2190;DHT22;1101;51.056;7.262;2023-04-03T07:55:01;3.00;99.90
2190;DHT22;1101;51.056;7.262;2023-04-03T07:57:29;3.10;99.90
2190;DHT22;1101;51.056;7.262;2023-04-03T07:59:57;3.20;99.90
2190;DHT22;1101;51.056;7.262;2023-04-03T08:02:25;3.30;99.90
2190;DHT22;1101;51.056;7.262;2023-04-03T08:04:53;3.30;99.90
2190;DHT22;1101;51.056;7.262;2023-04-03T08:07:23;3.30;99.90
2190;DHT22;1101;51.056;7.262;2023-04-03T08:09:50;3.30;99.90
2190;DHT22;1101;51.056;7.262;2023-04-03T08:12:18;3.40;99.90
2190;DHT22;1101;51.056;7.262;2023-04-03T08:14:46;3.50;99.90
2190;DHT22;1101;51.056;7.262;2023-04-03T08:17:14;3.60;99.90
2190;DHT22;1101;51.056;7.262;2023-04-03T08:19:42;3.60;99.90
2190;DHT22;1101;51.056;7.262;2023-04-03T08:22:10;3.80;99.90
2190;DHT22;1101;51.056;7.262;2023-04-03T08:24:39;3.80;99.90
2190;DHT22;1101;51.056;7.262;2023-04-03T08:27:23;3.90;99.90
2190;DHT22;1101;51.056;7.262;2023-04-03T08:29:51;4.00;99.90
2190;DHT22;1101;51.056;7.262;2023-04-03T08:32:19;4.00;99.90
2190;DHT22;1101;51.056;7.262;2023-04-03T08:34:47;4.10;99.90
2190;DHT22;1101;51.056;7.262;2023-04-03T08:37:15;4.20;99.90
2190;DHT22;1101;51.056;7.262;2023-04-03T08:39:45;4.20;99.90
2190;DHT22;1101;51.056;7.262;2023-04-03T08:42:18;4.30;99.90
2190;DHT22;1101;51.056;7.262;2023-04-03T08:44:50;4.40;99.90
2190;DHT22;1101;51.056;7.262;2023-04-03T08:47:24;4.40;99.90
2190;DHT22;1101;51.056;7.262;2023-04-03T08:49:54;4.50;99.90
2190;DHT22;1101;51.056;7.262;2023-04-03T08:52:31;4.60;99.90
2190;DHT22;1101;51.056;7.262;2023-04-03T08:55:05;4.70;99.80
2190;DHT22;1101;51.056;7.262;2023-04-03T08:57:36;4.90;99.60
2190;DHT22;1101;51.056;7.262;2023-04-03T09:00:16;5.00;99.90
2190;DHT22;1101;51.056;7.262;2023-04-03T09:02:46;5.10;99.80
2190;DHT22;1101;51.056;7.262;2023-04-03T09:05:17;5.20;99.40
2190;DHT22;1101;51.056;7.262;2023-04-03T09:07:47;5.30;99.50
2190;DHT22;1101;51.056;7.262;2023-04-03T09:10:23;5.40;99.50
2190;DHT22;1101;51.056;7.262;2023-04-03T09:12:59;5.50;99.60
2190;DHT22;1101;51.056;7.262;2023-04-03T09:15:27;5.60;98.70
2190;DHT22;1101;51.056;7.262;2023-04-03T09:18:11;5.70;98.90
2190;DHT22;1101;51.056;7.262;2023-04-03T09:20:46;5.80;98.40
2190;DHT22;1101;51.056;7.262;2023-04-03T09:23:22;5.80;98.10
2190;DHT22;1101;51.056;7.262;2023-04-03T09:25:58;5.80;97.60
2190;DHT22;1101;51.056;7.262;2023-04-03T09:28:31;5.80;97.70
2190;DHT22;1101;51.056;7.262;2023-04-03T09:31:20;5.90;97.90
2190;DHT22;1101;51.056;7.262;2023-04-03T09:33:50;6.00;97.70
2190;DHT22;1101;51.056;7.262;2023-04-03T09:36:42;6.00;97.50
2190;DHT22;1101;51.056;7.262;2023-04-03T09:39:13;6.10;97.60
2190;DHT22;1101;51.056;7.262;2023-04-03T09:41:55;6.10;96.90
2190;DHT22;1101;51.056;7.262;2023-04-03T09:44:25;6.20;97.30
2190;DHT22;1101;51.056;7.262;2023-04-03T09:46:53;6.20;96.90
2190;DHT22;1101;51.056;7.262;2023-04-03T09:49:22;6.30;97.10
2190;DHT22;1101;51.056;7.262;2023-04-03T09:51:49;6.30;96.20
2190;DHT22;1101;51.056;7.262;2023-04-03T09:54:36;6.40;96.40
2190;DHT22;1101;51.056;7.262;2023-04-03T09:57:10;6.40;96.40
2190;DHT22;1101;51.056;7.262;2023-04-03T09:59:44;6.50;96.90
2190;DHT22;1101;51.056;7.262;2023-04-03T10:05:28;6.70;97.20
2190;DHT22;1101;51.056;7.262;2023-04-03T10:08:17;6.80;96.60
2190;DHT22;1101;51.056;7.262;2023-04-03T10:10:48;6.90;96.40
2190;DHT22;1101;51.056;7.262;2023-04-03T10:13:19;6.90;96.30
2190;DHT22;1101;51.056;7.262;2023-04-03T10:15:51;7.00;96.00
2190;DHT22;1101;51.056;7.262;2023-04-03T10:18:29;7.00;96.00
2190;DHT22;1101;51.056;7.262;2023-04-03T10:21:03;7.00;95.90
2190;DHT22;1101;51.056;7.262;2023-04-03T10:23:42;7.10;96.00
2190;DHT22;1101;51.056;7.262;2023-04-03T10:26:20;7.20;95.90
2190;DHT22;1101;51.056;7.262;2023-04-03T10:28:58;7.30;95.60
2190;DHT22;1101;51.056;7.262;2023-04-03T10:31:33;7.30;94.50
2190;DHT22;1101;51.056;7.262;2023-04-03T10:34:05;7.30;94.60
2190;DHT22;1101;51.056;7.262;2023-04-03T10:36:38;7.30;95.10
2190;DHT22;1101;51.056;7.262;2023-04-03T10:39:18;7.40;95.20
2190;DHT22;1101;51.056;7.262;2023-04-03T10:41:58;7.50;94.10
2190;DHT22;1101;51.056;7.262;2023-04-03T10:44:53;7.60;94.90
2190;DHT22;1101;51.056;7.262;2023-04-03T10:47:24;7.70;94.80
2190;DHT22;1101;51.056;7.262;2023-04-03T10:50:00;7.70;95.00
2190;DHT22;1101;51.056;7.262;2023-04-03T10:52:35;7.80;94.50
2190;DHT22;1101;51.056;7.262;2023-04-03T10:55:17;7.80;93.70
2190;DHT22;1101;51.056;7.262;2023-04-03T10:57:49;7.80;93.90
2190;DHT22;1101;51.056;7.262;2023-04-03T11:00:22;7.80;94.60
2190;DHT22;1101;51.056;7.262;2023-04-03T11:02:55;7.90;94.50
2190;DHT22;1101;51.056;7.262;2023-04-03T11:05:31;8.00;94.50
2190;DHT22;1101;51.056;7.262;2023-04-03T11:08:05;8.00;94.00
2190;DHT22;1101;51.056;7.262;2023-04-03T11:10:40;8.10;94.00
2190;DHT22;1101;51.056;7.262;2023-04-03T11:13:12;8.10;93.90
2190;DHT22;1101;51.056;7.262;2023-04-03T11:15:43;8.20;93.80
2190;DHT22;1101;51.056;7.262;2023-04-03T11:18:14;8.20;92.90
2190;DHT22;1101;51.056;7.262;2023-04-03T11:20:49;8.20;92.50
2190;DHT22;1101;51.056;7.262;2023-04-03T11:23:21;8.20;93.30
2190;DHT22;1101;51.056;7.262;2023-04-03T11:26:07;8.30;92.70
2190;DHT22;1101;51.056;7.262;2023-04-03T11:28:36;8.40;92.90
2190;DHT22;1101;51.056;7.262;2023-04-03T11:31:25;8.40;92.70
2190;DHT22;1101;51.056;7.262;2023-04-03T11:34:01;8.40;92.20
2190;DHT22;1101;51.056;7.262;2023-04-03T11:36:33;8.40;91.50
2190;DHT22;1101;51.056;7.262;2023-04-03T11:39:23;8.40;91.10
2190;DHT22;1101;51.056;7.262;2023-04-03T11:41:52;8.40;91.20
2190;DHT22;1101;51.056;7.262;2023-04-03T11:44:37;8.40;91.30
2190;DHT22;1101;51.056;7.262;2023-04-03T11:47:08;8.50;91.40
2190;DHT22;1101;51.056;7.262;2023-04-03T11:49:56;8.50;91.20
2190;DHT22;1101;51.056;7.262;2023-04-03T11:53:02;8.60;91.30
2190;DHT22;1101;51.056;7.262;2023-04-03T11:55:57;8.70;91.00
2190;DHT22;1101;51.056;7.262;2023-04-03T11:58:27;8.80;91.30
2190;DHT22;1101;51.056;7.262;2023-04-03T12:00:58;8.80;91.20
2190;DHT22;1101;51.056;7.262;2023-04-03T12:07:13;9.00;91.20
2190;DHT22;1101;51.056;7.262;2023-04-03T12:10:16;9.20;90.80
2190;DHT22;1101;51.056;7.262;2023-04-03T12:12:58;9.20;90.50
2190;DHT22;1101;51.056;7.262;2023-04-03T12:15:51;9.30;90.70
2190;DHT22;1101;51.056;7.262;2023-04-03T12:19:00;9.30;90.10
2190;DHT22;1101;51.056;7.262;2023-04-03T12:22:05;9.40;90.20
2190;DHT22;1101;51.056;7.262;2023-04-03T12:24:36;9.30;90.00
2190;DHT22;1101;51.056;7.262;2023-04-03T12:27:17;9.40;90.50
2190;DHT22;1101;51.056;7.262;2023-04-03T12:29:52;9.40;90.20
2190;DHT22;1101;51.056;7.262;2023-04-03T12:32:46;9.50;90.60
2190;DHT22;1101;51.056;7.262;2023-04-03T12:35:28;9.50;90.50
2190;DHT22;1101;51.056;7.262;2023-04-03T12:38:25;9.70;90.50
2190;DHT22;1101;51.056;7.262;2023-04-03T12:41:13;9.80;90.20
2190;DHT22;1101;51.056;7.262;2023-04-03T12:43:54;9.80;90.30
2190;DHT22;1101;51.056;7.262;2023-04-03T12:46:33;9.90;89.60
2190;DHT22;1101;51.056;7.262;2023-04-03T12:49:17;9.90;89.80
2190;DHT22;1101;51.056;7.262;2023-04-03T12:51:46;9.90;90.10
2190;DHT22;1101;51.056;7.262;2023-04-03T12:54:17;9.90;88.50
2190;DHT22;1101;51.056;7.262;2023-04-03T12:56:47;9.80;88.00
2190;DHT22;1101;51.056;7.262;2023-04-03T12:59:16;9.80;89.40
2190;DHT22;1101;51.056;7.262;2023-04-03T13:01:53;9.90;89.00
2190;DHT22;1101;51.056;7.262;2023-04-03T13:04:21;9.90;89.70
2190;DHT22;1101;51.056;7.262;2023-04-03T13:06:50;9.90;88.80
2190;DHT22;1101;51.056;7.262;2023-04-03T13:09:20;10.00;87.20
2190;DHT22;1101;51.056;7.262;2023-04-03T13:11:54;10.00;87.10
2190;DHT22;1101;51.056;7.262;2023-04-03T13:14:25;10.00;87.30
2190;DHT22;1101;51.056;7.262;2023-04-03T13:16:56;10.00;85.80
2190;DHT22;1101;51.056;7.262;2023-04-03T13:19:26;10.00;83.20
2190;DHT22;1101;51.056;7.262;2023-04-03T13:21:58;10.00;86.60
2190;DHT22;1101;51.056;7.262;2023-04-03T13:24:28;10.00;85.90
2190;DHT22;1101;51.056;7.262;2023-04-03T13:26:58;10.00;86.60
2190;DHT22;1101;51.056;7.262;2023-04-03T13:29:28;10.00;86.00
2190;DHT22;1101;51.056;7.262;2023-04-03T13:31:59;10.00;86.70
2190;DHT22;1101;51.056;7.262;2023-04-03T13:34:32;10.00;86.70
2190;DHT22;1101;51.056;7.262;2023-04-03T13:37:03;10.10;87.40
2190;DHT22;1101;51.056;7.262;2023-04-03T13:39:33;10.20;87.10
2190;DHT22;1101;51.056;7.262;2023-04-03T13:42:15;10.20;86.90
2190;DHT22;1101;51.056;7.262;2023-04-03T13:44:43;10.30;86.30
2190;DHT22;1101;51.056;7.262;2023-04-03T13:47:18;10.30;85.90
2190;DHT22;1101;51.056;7.262;2023-04-03T13:50:00;10.30;85.90
2190;DHT22;1101;51.056;7.262;2023-04-03T13:52:32;10.30;85.50
2190;DHT22;1101;51.056;7.262;2023-04-03T13:55:16;10.30;84.80
2190;DHT22;1101;51.056;7.262;2023-04-03T13:57:56;10.20;85.60
2190;DHT22;1101;51.056;7.262;2023-04-03T14:00:31;10.30;86.00
2190;DHT22;1101;51.056;7.262;2023-04-03T14:03:00;10.40;86.20
2190;DHT22;1101;51.056;7.262;2023-04-03T14:05:29;10.40;85.00
2190;DHT22;1101;51.056;7.262;2023-04-03T14:07:56;10.50;85.50
2190;DHT22;1101;51.056;7.262;2023-04-03T14:10:25;10.50;86.00
2190;DHT22;1101;51.056;7.262;2023-04-03T14:12:54;10.50;85.60
2190;DHT22;1101;51.056;7.262;2023-04-03T14:15:24;10.50;85.60
2190;DHT22;1101;51.056;7.262;2023-04-03T14:17:54;10.50;85.40
2190;DHT22;1101;51.056;7.262;2023-04-03T14:20:25;10.50;85.30
2190;DHT22;1101;51.056;7.262;2023-04-03T14:22:53;10.50;85.30
2190;DHT22;1101;51.056;7.262;2023-04-03T14:25:21;10.50;84.80
2190;DHT22;1101;51.056;7.262;2023-04-03T14:27:51;10.50;85.30
2190;DHT22;1101;51.056;7.262;2023-04-03T14:30:23;10.50;85.50
2190;DHT22;1101;51.056;7.262;2023-04-03T14:32:52;10.50;84.90
2190;DHT22;1101;51.056;7.262;2023-04-03T14:35:20;10.40;83.90
2190;DHT22;1101;51.056;7.262;2023-04-03T14:37:48;10.40;82.40
2190;DHT22;1101;51.056;7.262;2023-04-03T14:40:21;10.30;84.70
2190;DHT22;1101;51.056;7.262;2023-04-03T14:42:49;10.30;84.90
2190;DHT22;1101;51.056;7.262;2023-04-03T14:45:17;10.40;83.40
2190;DHT22;1101;51.056;7.262;2023-04-03T14:47:48;10.40;83.30
2190;DHT22;1101;51.056;7.262;2023-04-03T14:50:19;10.40;84.10
2190;DHT22;1101;51.056;7.262;2023-04-03T14:52:48;10.50;83.50
2190;DHT22;1101;51.056;7.262;2023-04-03T14:55:20;10.50;81.50
2190;DHT22;1101;51.056;7.262;2023-04-03T14:57:48;10.30;81.20
2190;DHT22;1101;51.056;7.262;2023-04-03T15:00:17;10.20;81.80
2190;DHT22;1101;51.056;7.262;2023-04-03T15:02:47;10.20;83.00
2190;DHT22;1101;51.056;7.262;2023-04-03T15:05:15;10.30;83.80
2190;DHT22;1101;51.056;7.262;2023-04-03T15:07:47;10.40;82.00
2190;DHT22;1101;51.056;7.262;2023-04-03T15:10:18;10.30;81.00
2190;DHT22;1101;51.056;7.262;2023-04-03T15:12:47;10.30;82.30
2190;DHT22;1101;51.056;7.262;2023-04-03T15:15:16;10.30;80.50
2190;DHT22;1101;51.056;7.262;2023-04-03T15:17:51;10.20;80.30
2190;DHT22;1101;51.056;7.262;2023-04-03T15:20:22;10.30;80.90
2190;DHT22;1101;51.056;7.262;2023-04-03T15:22:50;10.30;79.60
2190;DHT22;1101;51.056;7.262;2023-04-03T15:25:18;10.20;76.30
2190;DHT22;1101;51.056;7.262;2023-04-03T15:27:46;10.10;77.90
2190;DHT22;1101;51.056;7.262;2023-04-03T15:30:17;10.10;76.10
2190;DHT22;1101;51.056;7.262;2023-04-03T15:32:47;10.00;76.10
2190;DHT22;1101;51.056;7.262;2023-04-03T15:35:15;10.00;74.60
2190;DHT22;1101;51.056;7.262;2023-04-03T15:37:42;9.90;77.50
2190;DHT22;1101;51.056;7.262;2023-04-03T15:40:11;9.90;78.70
2190;DHT22;1101;51.056;7.262;2023-04-03T15:42:39;9.90;80.30
2190;DHT22;1101;51.056;7.262;2023-04-03T15:45:08;9.90;79.90
2190;DHT22;1101;51.056;7.262;2023-04-03T15:47:36;9.80;77.40
2190;DHT22;1101;51.056;7.262;2023-04-03T15:50:06;9.60;77.10
2190;DHT22;1101;51.056;7.262;2023-04-03T15:52:35;9.40;77.10
2190;DHT22;1101;51.056;7.262;2023-04-03T15:55:03;9.30;78.30
2190;DHT22;1101;51.056;7.262;2023-04-03T15:57:31;9.10;76.70
2190;DHT22;1101;51.056;7.262;2023-04-03T16:00:05;8.90;78.70
2190;DHT22;1101;51.056;7.262;2023-04-03T16:02:33;8.80;79.50
2190;DHT22;1101;51.056;7.262;2023-04-03T16:05:02;8.70;78.60
2190;DHT22;1101;51.056;7.262;2023-04-03T16:07:31;8.60;78.40
2190;DHT22;1101;51.056;7.262;2023-04-03T16:09:59;8.50;78.60
2190;DHT22;1101;51.056;7.262;2023-04-03T16:12:27;8.40;78.70
2190;DHT22;1101;51.056;7.262;2023-04-03T16:14:55;8.30;78.20
2190;DHT22;1101;51.056;7.262;2023-04-03T16:17:23;8.20;77.60
2190;DHT22;1101;51.056;7.262;2023-04-03T16:19:50;8.20;78.90
2190;DHT22;1101;51.056;7.262;2023-04-03T16:22:18;8.10;77.70
2190;DHT22;1101;51.056;7.262;2023-04-03T16:24:47;8.00;78.40
2190;DHT22;1101;51.056;7.262;2023-04-03T16:27:16;7.90;78.70
2190;DHT22;1101;51.056;7.262;2023-04-03T16:29:43;7.90;78.90
2190;DHT22;1101;51.056;7.262;2023-04-03T16:32:12;7.80;76.50
2190;DHT22;1101;51.056;7.262;2023-04-03T16:34:40;7.80;78.20
2190;DHT22;1101;51.056;7.262;2023-04-03T16:37:08;7.70;78.50
2190;DHT22;1101;51.056;7.262;2023-04-03T16:39:36;7.70;78.40
2190;DHT22;1101;51.056;7.262;2023-04-03T16:42:05;7.60;77.40
2190;DHT22;1101;51.056;7.262;2023-04-03T16:44:33;7.50;77.90
2190;DHT22;1101;51.056;7.262;2023-04-03T16:47:01;7.40;78.20